createdAt,value
2017-07-05T00:00:25.393Z,13.90
2017-07-05T00:02:54.189Z,13.90
2017-07-05T00:05:22.512Z,13.90
2017-07-05T00:07:50.852Z,13.90
2017-07-05T00:10:26.027Z,13.90
2017-07-05T00:12:55.430Z,13.90
2017-07-05T00:15:23.761Z,13.90
2017-07-05T00:17:56.205Z,13.90
2017-07-05T00:20:24.563Z,13.90
2017-07-05T00:22:52.905Z,13.90
2017-07-05T00:25:22.413Z,13.90
2017-07-05T00:27:50.784Z,13.90
2017-07-05T00:30:19.105Z,13.80
2017-07-05T00:32:47.989Z,13.80
2017-07-05T00:35:17.294Z,13.80
2017-07-05T00:37:45.679Z,13.80
2017-07-05T00:40:14.148Z,13.70
2017-07-05T00:42:42.874Z,13.70
2017-07-05T00:45:11.253Z,13.60
2017-07-05T00:47:41.419Z,13.60
2017-07-05T00:50:09.819Z,13.60
2017-07-05T00:52:39.122Z,13.60
2017-07-05T00:55:08.624Z,13.60
2017-07-05T00:57:36.972Z,13.50
2017-07-05T01:00:05.472Z,13.60
2017-07-05T01:02:34.009Z,13.50
2017-07-05T01:05:02.342Z,13.50
2017-07-05T01:07:32.694Z,13.50
2017-07-05T01:10:01.353Z,13.50
2017-07-05T01:12:29.676Z,13.50
2017-07-05T01:14:58.000Z,13.50
2017-07-05T01:17:30.872Z,13.50
2017-07-05T01:19:59.213Z,13.40
2017-07-05T01:22:27.557Z,13.40
2017-07-05T01:24:56.039Z,13.40
2017-07-05T01:27:24.377Z,13.30
2017-07-05T01:29:52.747Z,13.30
2017-07-05T01:32:21.356Z,13.40
2017-07-05T01:34:49.697Z,13.30
2017-07-05T01:37:18.127Z,13.30
2017-07-05T01:39:46.713Z,13.30
2017-07-05T01:42:15.085Z,13.30
2017-07-05T01:44:43.627Z,13.30
2017-07-05T01:47:12.310Z,13.20
2017-07-05T01:49:40.985Z,13.30
2017-07-05T01:52:09.547Z,13.20
2017-07-05T01:54:38.972Z,13.30
2017-07-05T01:57:07.431Z,13.20
2017-07-05T01:59:35.803Z,13.20
2017-07-05T02:02:04.548Z,13.20
2017-07-05T02:04:32.936Z,13.20
2017-07-05T02:07:02.288Z,13.10
2017-07-05T02:09:31.217Z,13.20
2017-07-05T02:11:59.599Z,13.20
2017-07-05T02:14:29.082Z,13.20
2017-07-05T02:16:58.004Z,13.10
2017-07-05T02:19:26.381Z,13.10
2017-07-05T02:21:54.712Z,13.10
2017-07-05T02:24:23.241Z,13.10
2017-07-05T02:26:51.572Z,13.10
2017-07-05T02:29:19.950Z,13.10
2017-07-05T02:31:48.496Z,13.10
2017-07-05T02:34:16.853Z,13.10
2017-07-05T02:36:45.233Z,13.00
2017-07-05T02:39:13.937Z,13.10
2017-07-05T02:41:43.334Z,13.00
2017-07-05T02:44:11.751Z,13.00
2017-07-05T02:46:41.127Z,13.00
2017-07-05T02:49:09.505Z,13.00
2017-07-05T02:51:37.958Z,13.00
2017-07-05T02:54:10.055Z,13.00
2017-07-05T02:56:38.430Z,13.10
2017-07-05T02:59:06.840Z,13.10
2017-07-05T03:01:35.580Z,13.10
2017-07-05T03:04:03.913Z,13.10
2017-07-05T03:06:32.254Z,13.20
2017-07-05T03:09:00.882Z,13.10
2017-07-05T03:11:29.227Z,13.20
2017-07-05T03:13:57.557Z,13.20
2017-07-05T03:16:26.114Z,13.20
2017-07-05T03:18:54.473Z,13.20
2017-07-05T03:21:22.800Z,13.30
2017-07-05T03:23:53.082Z,13.30
2017-07-05T03:26:21.400Z,13.30
2017-07-05T03:28:49.738Z,13.20
2017-07-05T03:31:18.525Z,13.20
2017-07-05T03:33:46.900Z,13.20
2017-07-05T03:36:15.351Z,13.20
2017-07-05T03:38:44.068Z,13.20
2017-07-05T03:41:12.440Z,13.10
2017-07-05T03:43:40.809Z,13.20
2017-07-05T03:46:10.491Z,13.20
2017-07-05T03:48:40.600Z,13.20
2017-07-05T03:51:08.972Z,13.20
2017-07-05T03:53:39.838Z,13.20
2017-07-05T03:56:08.380Z,13.20
2017-07-05T03:58:36.795Z,13.30
2017-07-05T04:01:06.273Z,13.30
2017-07-05T04:03:34.598Z,13.30
2017-07-05T04:06:03.885Z,13.40
2017-07-05T04:08:32.549Z,13.40
2017-07-05T04:11:00.865Z,13.40
2017-07-05T04:13:29.198Z,13.40
2017-07-05T04:15:58.075Z,13.40
2017-07-05T04:18:26.527Z,13.40
2017-07-05T04:20:54.916Z,13.30
2017-07-05T04:23:23.498Z,13.40
2017-07-05T04:25:51.925Z,13.40
2017-07-05T04:28:21.308Z,13.30
2017-07-05T04:30:49.788Z,13.30
2017-07-05T04:33:18.165Z,13.40
2017-07-05T04:35:46.745Z,13.40
2017-07-05T04:38:16.610Z,13.40
2017-07-05T04:40:45.432Z,13.40
2017-07-05T04:43:13.858Z,13.50
2017-07-05T04:45:42.485Z,13.50
2017-07-05T04:48:10.918Z,13.50
2017-07-05T04:50:39.342Z,13.60
2017-07-05T04:53:10.637Z,13.60
2017-07-05T04:55:39.101Z,13.60
2017-07-05T04:58:07.612Z,13.60
2017-07-05T05:00:36.166Z,13.60
2017-07-05T05:03:04.524Z,13.60
2017-07-05T05:05:32.969Z,13.70
2017-07-05T05:08:02.286Z,13.80
2017-07-05T05:10:31.574Z,13.90
2017-07-05T05:12:59.938Z,14.00
2017-07-05T05:15:29.080Z,14.10
2017-07-05T05:18:07.484Z,14.10
2017-07-05T05:20:37.580Z,14.00
2017-07-05T05:23:06.005Z,14.00
2017-07-05T05:25:34.353Z,14.00
2017-07-05T05:28:04.989Z,14.00
2017-07-05T05:30:33.647Z,14.10
2017-07-05T05:33:01.968Z,14.10
2017-07-05T05:35:30.613Z,14.10
2017-07-05T05:37:58.957Z,14.10
2017-07-05T05:40:27.304Z,14.10
2017-07-05T05:42:57.787Z,14.10
2017-07-05T05:45:26.169Z,14.30
2017-07-05T05:47:54.516Z,14.40
2017-07-05T05:50:23.021Z,14.40
2017-07-05T05:52:51.380Z,14.50
2017-07-05T05:55:19.717Z,14.50
2017-07-05T05:57:48.819Z,14.60
2017-07-05T06:00:17.332Z,14.80
2017-07-05T06:02:45.779Z,14.70
2017-07-05T06:05:14.645Z,14.70
2017-07-05T06:07:43.030Z,14.70
2017-07-05T06:10:11.440Z,14.70
2017-07-05T06:12:40.101Z,14.70
2017-07-05T06:15:09.008Z,14.60
2017-07-05T06:17:37.512Z,14.60
2017-07-05T06:20:06.816Z,14.60
2017-07-05T06:22:35.345Z,14.60
2017-07-05T06:25:03.694Z,14.60
2017-07-05T06:27:32.180Z,14.70
2017-07-05T06:30:00.597Z,14.70
2017-07-05T06:32:28.932Z,14.70
2017-07-05T06:34:58.297Z,14.80
2017-07-05T06:37:26.663Z,14.90
2017-07-05T06:39:55.013Z,15.00
2017-07-05T06:42:23.491Z,15.10
2017-07-05T06:44:51.907Z,15.20
2017-07-05T06:47:20.346Z,15.20
2017-07-05T06:49:49.214Z,15.20
2017-07-05T06:52:17.666Z,15.30
2017-07-05T06:54:46.152Z,15.40
2017-07-05T06:57:15.858Z,15.60
2017-07-05T06:59:44.317Z,15.70
2017-07-05T07:02:12.745Z,15.80
2017-07-05T07:04:41.381Z,15.90
2017-07-05T07:07:09.781Z,15.80
2017-07-05T07:09:38.145Z,15.80
2017-07-05T07:12:09.203Z,15.80
2017-07-05T07:14:37.641Z,15.80
2017-07-05T07:17:06.332Z,15.80
2017-07-05T07:19:35.533Z,15.90
2017-07-05T07:22:03.909Z,16.20
2017-07-05T07:24:32.293Z,16.50
2017-07-05T07:27:01.697Z,16.60
2017-07-05T07:29:30.056Z,16.50
2017-07-05T07:31:58.578Z,16.40
2017-07-05T07:34:28.246Z,16.20
2017-07-05T07:36:56.845Z,16.30
2017-07-05T07:39:25.207Z,16.40
2017-07-05T07:41:53.857Z,16.30
2017-07-05T07:44:22.231Z,16.50
2017-07-05T07:46:50.573Z,16.50
2017-07-05T07:49:18.971Z,16.40
2017-07-05T07:51:47.363Z,16.30
2017-07-05T07:54:15.741Z,16.40
2017-07-05T07:56:44.515Z,16.40
2017-07-05T07:59:12.915Z,16.40
2017-07-05T08:01:41.323Z,16.40
2017-07-05T08:04:09.786Z,16.50
2017-07-05T08:06:38.277Z,16.70
2017-07-05T08:09:06.640Z,16.90
2017-07-05T08:11:35.014Z,16.90
2017-07-05T08:14:03.345Z,16.80
2017-07-05T08:16:31.668Z,16.80
2017-07-05T08:19:00.876Z,16.70
2017-07-05T08:21:29.222Z,16.90
2017-07-05T08:23:58.451Z,17.00
2017-07-05T08:26:27.236Z,17.00
2017-07-05T08:28:55.632Z,17.00
2017-07-05T08:31:23.977Z,17.00
2017-07-05T08:33:53.340Z,17.10
2017-07-05T08:36:21.676Z,17.30
2017-07-05T08:38:50.431Z,17.50
2017-07-05T08:41:19.810Z,17.40
2017-07-05T08:43:48.762Z,17.50
2017-07-05T08:46:17.962Z,17.50
2017-07-05T08:48:46.472Z,17.60
2017-07-05T08:51:15.132Z,17.80
2017-07-05T08:53:43.699Z,18.10
2017-07-05T08:56:12.558Z,18.30
2017-07-05T08:58:41.159Z,18.00
2017-07-05T09:01:09.860Z,17.60
2017-07-05T09:03:38.852Z,17.40
2017-07-05T09:06:07.516Z,17.50
2017-07-05T09:08:35.863Z,17.60
2017-07-05T09:11:04.518Z,17.90
2017-07-05T09:13:32.927Z,18.20
2017-07-05T09:16:01.323Z,18.20
2017-07-05T09:18:30.599Z,18.20
2017-07-05T09:20:58.950Z,18.20
2017-07-05T09:23:28.319Z,18.30
2017-07-05T09:25:57.018Z,18.40
2017-07-05T09:28:26.393Z,18.50
2017-07-05T09:30:54.737Z,18.50
2017-07-05T09:33:24.597Z,18.60
2017-07-05T09:35:52.984Z,18.60
2017-07-05T09:38:21.313Z,18.80
2017-07-05T09:40:50.157Z,18.80
2017-07-05T09:43:18.557Z,18.70
2017-07-05T09:45:47.090Z,18.70
2017-07-05T09:48:16.848Z,18.70
2017-07-05T09:50:45.229Z,18.90
2017-07-05T09:53:13.672Z,19.40
2017-07-05T09:55:44.097Z,19.90
2017-07-05T09:58:12.597Z,20.70
2017-07-05T10:00:42.670Z,21.00
2017-07-05T10:03:11.644Z,21.40
2017-07-05T10:05:40.370Z,21.80
2017-07-05T10:08:09.076Z,21.80
2017-07-05T10:10:38.723Z,21.30
2017-07-05T10:13:08.331Z,21.30
2017-07-05T10:15:40.499Z,21.30
2017-07-05T10:18:09.126Z,22.00
2017-07-05T10:20:37.608Z,22.40
2017-07-05T10:23:06.034Z,22.00
2017-07-05T10:25:34.348Z,22.50
2017-07-05T10:28:02.682Z,23.30
2017-07-05T10:30:34.656Z,23.60
2017-07-05T10:33:04.015Z,23.90
2017-07-05T10:35:32.371Z,24.20
2017-07-05T10:38:00.983Z,24.40
2017-07-05T10:40:29.438Z,24.60
2017-07-05T10:43:01.604Z,24.90
2017-07-05T10:45:30.260Z,24.60
2017-07-05T10:47:58.597Z,24.30
2017-07-05T10:50:26.944Z,24.10
2017-07-05T10:52:55.610Z,24.50
2017-07-05T10:55:24.054Z,24.90
2017-07-05T10:57:52.428Z,25.00
2017-07-05T11:00:20.998Z,24.40
2017-07-05T11:02:49.435Z,23.80
2017-07-05T11:05:17.772Z,23.80
2017-07-05T11:07:46.370Z,24.20
2017-07-05T11:10:14.748Z,24.70
2017-07-05T11:12:43.131Z,25.00
2017-07-05T11:15:11.685Z,25.40
2017-07-05T11:17:40.247Z,25.10
2017-07-05T11:20:08.822Z,25.30
2017-07-05T11:22:37.576Z,25.10
2017-07-05T11:25:05.888Z,25.70
2017-07-05T11:27:34.235Z,25.90
2017-07-05T11:30:02.867Z,26.10
2017-07-05T11:32:31.220Z,26.10
2017-07-05T11:34:59.531Z,25.30
2017-07-05T11:37:28.090Z,26.10
2017-07-05T11:39:56.460Z,26.40
2017-07-05T11:42:24.845Z,27.20
2017-07-05T11:44:53.243Z,27.10
2017-07-05T11:47:21.603Z,26.40
2017-07-05T11:49:49.955Z,25.60
2017-07-05T11:52:18.878Z,25.10
2017-07-05T11:54:47.633Z,24.90
2017-07-05T11:57:16.044Z,24.60
2017-07-05T11:59:45.224Z,23.90
2017-07-05T12:02:13.956Z,24.00
2017-07-05T12:04:42.628Z,24.40
2017-07-05T12:07:12.417Z,25.10
2017-07-05T12:09:40.926Z,25.90
2017-07-05T12:12:09.584Z,26.00
2017-07-05T12:14:38.243Z,26.00
2017-07-05T12:17:06.600Z,25.40
2017-07-05T12:19:34.937Z,24.60
2017-07-05T12:22:03.482Z,24.80
2017-07-05T12:24:32.349Z,25.40
2017-07-05T12:27:00.667Z,25.90
2017-07-05T12:29:29.200Z,26.10
2017-07-05T12:31:57.524Z,26.70
2017-07-05T12:34:25.881Z,27.30
2017-07-05T12:36:54.535Z,27.90
2017-07-05T12:39:22.959Z,27.60
2017-07-05T12:41:51.270Z,27.00
2017-07-05T12:44:20.689Z,26.60
2017-07-05T12:46:50.155Z,26.80
2017-07-05T12:49:18.535Z,27.20
2017-07-05T12:51:47.246Z,26.60
2017-07-05T12:54:15.774Z,25.80
2017-07-05T12:56:45.145Z,25.60
2017-07-05T12:59:13.588Z,25.30
2017-07-05T13:01:42.297Z,25.90
2017-07-05T13:04:11.152Z,26.80
2017-07-05T13:06:40.358Z,27.60
2017-07-05T13:09:10.005Z,28.30
2017-07-05T13:11:39.292Z,28.00
2017-07-05T13:14:08.212Z,27.60
2017-07-05T13:16:36.650Z,26.90
2017-07-05T13:19:05.118Z,27.00
2017-07-05T13:21:34.013Z,27.50
2017-07-05T13:24:02.387Z,27.80
2017-07-05T13:26:30.980Z,27.90
2017-07-05T13:29:01.000Z,27.30
2017-07-05T13:31:31.371Z,26.50
2017-07-05T13:33:59.878Z,27.50
2017-07-05T13:36:28.461Z,28.10
2017-07-05T13:38:56.864Z,28.50
2017-07-05T13:41:25.214Z,28.30
2017-07-05T13:43:54.106Z,27.50
2017-07-05T13:46:22.429Z,26.70
2017-07-05T13:48:50.905Z,27.10
2017-07-05T13:51:19.927Z,26.90
2017-07-05T13:53:48.318Z,26.30
2017-07-05T13:56:16.708Z,26.30
2017-07-05T13:58:45.478Z,25.60
2017-07-05T14:01:14.020Z,26.30
2017-07-05T14:03:42.420Z,26.60
2017-07-05T14:06:11.363Z,26.80
2017-07-05T14:08:39.993Z,27.20
2017-07-05T14:11:08.348Z,26.20
2017-07-05T14:13:36.772Z,25.80
2017-07-05T14:16:05.119Z,25.90
2017-07-05T14:18:33.483Z,26.50
2017-07-05T14:21:02.236Z,27.00
2017-07-05T14:23:30.575Z,27.70
2017-07-05T14:25:58.892Z,27.80
2017-07-05T14:28:27.387Z,28.50
2017-07-05T14:30:55.741Z,28.60
2017-07-05T14:33:24.094Z,28.20
2017-07-05T14:35:52.908Z,28.30
2017-07-05T14:38:21.285Z,28.00
2017-07-05T14:40:49.671Z,27.50
2017-07-05T14:43:18.429Z,27.00
2017-07-05T14:45:46.859Z,27.40
2017-07-05T14:48:15.437Z,27.50
2017-07-05T14:50:49.942Z,27.40
2017-07-05T14:53:18.345Z,27.40
2017-07-05T14:55:46.829Z,27.70
2017-07-05T14:58:15.692Z,27.70
2017-07-05T15:00:44.346Z,27.40
2017-07-05T15:03:12.884Z,27.60
2017-07-05T15:05:41.473Z,27.70
2017-07-05T15:08:10.206Z,27.90
2017-07-05T15:10:39.506Z,28.20
2017-07-05T15:13:08.267Z,28.40
2017-07-05T15:15:36.605Z,28.00
2017-07-05T15:18:04.941Z,28.60
2017-07-05T15:20:33.553Z,28.60
2017-07-05T15:23:01.900Z,27.90
2017-07-05T15:25:30.246Z,27.00
2017-07-05T15:27:58.995Z,26.80
2017-07-05T15:30:27.301Z,26.60
2017-07-05T15:32:55.639Z,25.60
2017-07-05T15:35:24.914Z,25.90
2017-07-05T15:37:53.273Z,25.70
2017-07-05T15:40:22.846Z,26.60
2017-07-05T15:42:54.458Z,27.30
2017-07-05T15:45:22.915Z,27.70
2017-07-05T15:47:51.301Z,27.60
2017-07-05T15:50:19.994Z,27.50
2017-07-05T15:52:48.303Z,27.50
2017-07-05T15:55:16.742Z,27.40
2017-07-05T15:57:45.270Z,27.70
2017-07-05T16:00:13.764Z,28.00
2017-07-05T16:02:42.367Z,28.00
2017-07-05T16:05:10.899Z,27.70
2017-07-05T16:07:39.348Z,27.50
2017-07-05T16:10:08.576Z,26.80
2017-07-05T16:12:38.670Z,27.10
2017-07-05T16:15:07.690Z,27.50
2017-07-05T16:17:37.448Z,27.70
2017-07-05T16:20:05.991Z,27.60
2017-07-05T16:22:34.353Z,27.60
2017-07-05T16:25:02.703Z,27.80
2017-07-05T16:27:31.330Z,27.60
2017-07-05T16:29:59.771Z,27.40
2017-07-05T16:32:28.210Z,27.70
2017-07-05T16:34:56.941Z,27.70
2017-07-05T16:37:25.332Z,27.20
2017-07-05T16:39:53.706Z,27.70
2017-07-05T16:42:22.521Z,27.40
2017-07-05T16:44:51.590Z,27.50
2017-07-05T16:47:20.015Z,27.50
2017-07-05T16:49:50.699Z,27.40
2017-07-05T16:52:19.117Z,26.90
2017-07-05T16:54:48.045Z,26.70
2017-07-05T16:57:16.688Z,27.00
2017-07-05T16:59:45.283Z,27.20
2017-07-05T17:02:13.784Z,26.80
2017-07-05T17:04:42.726Z,26.50
2017-07-05T17:07:11.541Z,26.00
2017-07-05T17:09:40.004Z,25.80
2017-07-05T17:12:09.509Z,25.80
2017-07-05T17:14:39.362Z,25.60
2017-07-05T17:17:07.861Z,25.10
2017-07-05T17:19:36.607Z,24.40
2017-07-05T17:22:04.984Z,23.50
2017-07-05T17:24:33.452Z,23.30
2017-07-05T17:27:02.115Z,23.80
2017-07-05T17:29:30.471Z,24.30
2017-07-05T17:31:58.849Z,24.70
2017-07-05T17:34:27.429Z,24.80
2017-07-05T17:36:55.793Z,24.60
2017-07-05T17:39:24.128Z,24.30
2017-07-05T17:41:53.489Z,24.10
2017-07-05T17:44:22.019Z,23.70
2017-07-05T17:46:50.559Z,23.30
2017-07-05T17:49:19.354Z,23.00
2017-07-05T17:51:47.827Z,22.60
2017-07-05T17:54:17.224Z,22.50
2017-07-05T17:56:46.317Z,22.60
2017-07-05T17:59:14.724Z,22.90
2017-07-05T18:01:43.313Z,23.20
2017-07-05T18:04:12.335Z,23.00
2017-07-05T18:06:41.025Z,22.80
2017-07-05T18:09:09.664Z,22.30
2017-07-05T18:11:38.748Z,22.00
2017-07-05T18:14:07.261Z,21.70
2017-07-05T18:16:35.809Z,21.60
2017-07-05T18:19:04.418Z,21.50
2017-07-05T18:21:32.862Z,21.40
2017-07-05T18:24:01.240Z,21.30
2017-07-05T18:26:29.638Z,21.10
2017-07-05T18:29:01.565Z,21.10
2017-07-05T18:31:30.288Z,21.40
2017-07-05T18:33:58.687Z,21.80
2017-07-05T18:36:27.024Z,21.70
2017-07-05T18:38:56.368Z,21.70
2017-07-05T18:41:24.795Z,21.80
2017-07-05T18:43:53.234Z,21.90
2017-07-05T18:46:22.017Z,22.10
2017-07-05T18:48:50.481Z,22.40
2017-07-05T18:51:19.061Z,22.50
2017-07-05T18:53:49.071Z,22.40
2017-07-05T18:56:17.564Z,22.10
2017-07-05T18:58:46.185Z,21.50
2017-07-05T19:01:17.902Z,21.00
2017-07-05T19:03:46.472Z,20.60
2017-07-05T19:06:15.375Z,20.50
2017-07-05T19:08:43.879Z,20.20
2017-07-05T19:11:12.455Z,20.20
2017-07-05T19:13:41.001Z,20.00
2017-07-05T19:16:11.018Z,19.80
2017-07-05T19:18:39.560Z,19.60
2017-07-05T19:21:08.106Z,19.40
2017-07-05T19:23:37.867Z,19.10
2017-07-05T19:26:06.325Z,19.00
2017-07-05T19:28:35.004Z,18.80
2017-07-05T19:31:04.257Z,18.70
2017-07-05T19:33:32.682Z,18.40
2017-07-05T19:36:02.272Z,18.30
2017-07-05T19:38:31.098Z,18.20
2017-07-05T19:41:00.372Z,18.10
2017-07-05T19:43:28.790Z,18.10
2017-07-05T19:45:57.600Z,18.10
2017-07-05T19:48:25.957Z,17.90
2017-07-05T19:50:54.337Z,17.80
2017-07-05T19:53:23.031Z,17.80
2017-07-05T19:55:52.964Z,17.70
2017-07-05T19:58:21.339Z,17.70
2017-07-05T20:00:50.131Z,17.60
2017-07-05T20:03:18.635Z,17.50
2017-07-05T20:05:47.013Z,17.50
2017-07-05T20:08:16.806Z,17.40
2017-07-05T20:10:45.237Z,17.40
2017-07-05T20:13:14.620Z,17.20
2017-07-05T20:15:43.463Z,17.00
2017-07-05T20:18:12.156Z,17.00
2017-07-05T20:20:41.174Z,17.00
2017-07-05T20:23:09.796Z,16.80
2017-07-05T20:25:38.382Z,16.70
2017-07-05T20:28:06.740Z,16.70
2017-07-05T20:30:36.367Z,16.70
2017-07-05T20:33:04.694Z,16.70
2017-07-05T20:35:33.167Z,16.70
2017-07-05T20:38:02.507Z,16.60
2017-07-05T20:40:30.872Z,16.50
2017-07-05T20:42:59.234Z,16.30
2017-07-05T20:45:28.581Z,16.20
2017-07-05T20:47:57.032Z,16.20
2017-07-05T20:50:25.637Z,16.30
2017-07-05T20:52:54.185Z,16.30
2017-07-05T20:55:22.551Z,16.20
2017-07-05T20:57:50.912Z,16.20
2017-07-05T21:00:20.237Z,16.10
2017-07-05T21:02:48.629Z,16.00
2017-07-05T21:05:17.017Z,15.90
2017-07-05T21:07:45.548Z,15.80
2017-07-05T21:10:14.093Z,15.70
2017-07-05T21:12:42.645Z,15.80
2017-07-05T21:15:11.338Z,15.60
2017-07-05T21:17:39.753Z,15.50
2017-07-05T21:20:08.153Z,15.60
2017-07-05T21:22:37.089Z,15.60
2017-07-05T21:25:05.518Z,15.60
2017-07-05T21:27:33.913Z,15.60
2017-07-05T21:30:02.529Z,15.50
2017-07-05T21:32:30.933Z,15.40
2017-07-05T21:34:59.345Z,15.30
2017-07-05T21:37:28.635Z,15.30
2017-07-05T21:39:57.040Z,15.20
2017-07-05T21:42:25.407Z,15.20
2017-07-05T21:44:54.174Z,15.20
2017-07-05T21:47:22.574Z,15.10
2017-07-05T21:49:51.069Z,15.10
2017-07-05T21:52:19.457Z,15.00
2017-07-05T21:54:47.815Z,15.10
2017-07-05T21:57:16.330Z,15.00
2017-07-05T21:59:44.976Z,14.90
2017-07-05T22:02:13.448Z,15.00
2017-07-05T22:04:41.841Z,14.70
2017-07-05T22:07:10.508Z,14.60
2017-07-05T22:09:38.998Z,14.60
2017-07-05T22:12:07.365Z,14.60
2017-07-05T22:14:36.967Z,14.60
2017-07-05T22:17:05.377Z,14.50
2017-07-05T22:19:33.711Z,14.40
2017-07-05T22:22:02.390Z,14.40
2017-07-05T22:24:31.838Z,14.50
2017-07-05T22:27:00.272Z,14.50
2017-07-05T22:29:29.469Z,14.40
2017-07-05T22:31:58.940Z,14.40
2017-07-05T22:34:28.476Z,14.30
2017-07-05T22:37:00.981Z,14.20
2017-07-05T22:39:29.292Z,14.10
2017-07-05T22:41:57.684Z,14.00
2017-07-05T22:44:27.100Z,14.00
2017-07-05T22:46:55.550Z,13.90
2017-07-05T22:49:24.736Z,13.90
2017-07-05T22:51:53.144Z,13.80
2017-07-05T22:54:21.520Z,13.80
2017-07-05T22:56:49.849Z,13.80
2017-07-05T22:59:18.914Z,13.70
2017-07-05T23:01:47.341Z,13.80
2017-07-05T23:04:15.805Z,13.70
2017-07-05T23:06:45.247Z,13.70
2017-07-05T23:09:13.817Z,13.60
2017-07-05T23:11:42.193Z,13.60
2017-07-05T23:14:11.415Z,13.60
2017-07-05T23:16:39.937Z,13.60
2017-07-05T23:19:08.884Z,13.70
2017-07-05T23:21:37.636Z,13.70
2017-07-05T23:24:05.948Z,13.70
2017-07-05T23:26:34.720Z,13.70
2017-07-05T23:29:03.808Z,13.50
2017-07-05T23:31:32.149Z,13.40
2017-07-05T23:34:00.549Z,13.40
2017-07-05T23:36:30.077Z,13.40
2017-07-05T23:38:58.448Z,13.30
2017-07-05T23:41:26.782Z,13.30
2017-07-05T23:43:55.453Z,13.30
2017-07-05T23:46:23.864Z,13.30
2017-07-05T23:48:52.249Z,13.30
2017-07-05T23:51:21.061Z,13.30
2017-07-05T23:53:49.545Z,13.20
2017-07-05T23:56:18.085Z,13.10
2017-07-05T23:58:47.443Z,13.10
